createdAt,value
2018-11-03T00:00:52.925Z,92.50
2018-11-03T00:03:57.100Z,92.70
2018-11-03T00:07:01.585Z,92.70
2018-11-03T00:10:06.563Z,92.80
2018-11-03T00:13:11.072Z,92.80
2018-11-03T00:16:15.534Z,92.80
2018-11-03T00:19:19.864Z,92.80
2018-11-03T00:22:24.203Z,92.80
2018-11-03T00:25:28.549Z,92.70
2018-11-03T00:28:32.868Z,92.80
2018-11-03T00:31:37.371Z,92.80
2018-11-03T00:34:41.683Z,92.80
2018-11-03T00:37:45.952Z,92.80
2018-11-03T00:40:50.607Z,93.00
2018-11-03T00:43:54.850Z,92.90
2018-11-03T00:46:59.262Z,92.90
2018-11-03T00:50:03.661Z,92.70
2018-11-03T00:53:07.892Z,92.70
2018-11-03T00:56:12.619Z,92.60
2018-11-03T00:59:17.083Z,92.60
2018-11-03T01:02:21.393Z,92.50
2018-11-03T01:05:25.735Z,92.50
2018-11-03T01:08:30.082Z,92.40
2018-11-03T01:11:34.453Z,92.50
2018-11-03T01:14:38.712Z,92.60
2018-11-03T01:17:43.011Z,92.70
2018-11-03T01:20:47.199Z,92.70
2018-11-03T01:23:51.794Z,92.70
2018-11-03T01:26:56.627Z,92.70
2018-11-03T01:30:01.009Z,92.90
2018-11-03T01:33:05.178Z,92.90
2018-11-03T01:36:09.089Z,93.00
2018-11-03T01:39:13.158Z,93.00
2018-11-03T01:42:17.606Z,93.00
2018-11-03T01:45:21.689Z,93.10
2018-11-03T01:48:25.630Z,93.10
2018-11-03T01:51:29.562Z,93.20
2018-11-03T01:54:33.447Z,93.30
2018-11-03T01:57:38.187Z,93.30
2018-11-03T02:00:42.119Z,93.30
2018-11-03T02:03:46.005Z,93.30
2018-11-03T02:06:50.076Z,93.40
2018-11-03T02:09:53.970Z,93.40
2018-11-03T02:12:57.871Z,93.50
2018-11-03T02:16:01.834Z,93.50
2018-11-03T02:19:06.053Z,93.60
2018-11-03T02:22:10.050Z,93.60
2018-11-03T02:25:13.948Z,93.70
2018-11-03T02:28:17.950Z,93.60
2018-11-03T02:31:21.904Z,93.50
2018-11-03T02:34:25.807Z,93.60
2018-11-03T02:37:29.712Z,93.60
2018-11-03T02:40:33.587Z,93.60
2018-11-03T02:43:37.533Z,93.60
2018-11-03T02:46:41.527Z,93.60
2018-11-03T02:49:45.547Z,93.50
2018-11-03T02:52:49.451Z,93.50
2018-11-03T02:55:53.411Z,93.50
2018-11-03T02:58:57.446Z,93.80
2018-11-03T03:02:01.346Z,93.30
2018-11-03T03:05:05.959Z,93.30
2018-11-03T03:08:09.891Z,93.30
2018-11-03T03:11:13.832Z,93.30
2018-11-03T03:14:17.789Z,93.30
2018-11-03T03:17:21.721Z,93.70
2018-11-03T03:20:25.620Z,93.30
2018-11-03T03:23:29.547Z,93.30
2018-11-03T03:26:33.480Z,93.20
2018-11-03T03:29:37.505Z,93.20
2018-11-03T03:32:41.963Z,93.10
2018-11-03T03:35:45.862Z,93.10
2018-11-03T03:38:49.794Z,93.10
2018-11-03T03:41:53.685Z,93.10
2018-11-03T03:44:57.598Z,93.10
2018-11-03T03:48:01.632Z,93.10
2018-11-03T03:51:05.563Z,93.20
2018-11-03T03:54:09.467Z,93.20
2018-11-03T03:57:13.357Z,93.20
2018-11-03T04:00:17.294Z,93.20
2018-11-03T04:03:21.162Z,93.30
2018-11-03T04:06:25.070Z,93.30
2018-11-03T04:09:28.970Z,93.20
2018-11-03T04:12:32.824Z,93.20
2018-11-03T04:15:36.697Z,93.20
2018-11-03T04:18:41.117Z,93.20
2018-11-03T04:21:45.062Z,93.20
2018-11-03T04:24:49.745Z,93.20
2018-11-03T04:27:53.728Z,93.20
2018-11-03T04:30:57.681Z,93.30
2018-11-03T04:34:01.631Z,93.50
2018-11-03T04:37:05.644Z,93.50
2018-11-03T04:40:11.388Z,93.60
2018-11-03T04:43:15.272Z,93.50
2018-11-03T04:46:19.213Z,93.60
2018-11-03T04:49:23.144Z,93.70
2018-11-03T04:52:27.147Z,93.80
2018-11-03T04:55:31.065Z,93.80
2018-11-03T04:58:34.960Z,93.90
2018-11-03T05:01:38.859Z,93.90
2018-11-03T05:04:42.740Z,93.80
2018-11-03T05:07:46.694Z,93.80
2018-11-03T05:10:50.685Z,93.80
2018-11-03T05:13:54.554Z,93.90
2018-11-03T05:16:58.466Z,93.70
2018-11-03T05:20:02.382Z,93.70
2018-11-03T05:23:06.318Z,93.70
2018-11-03T05:26:10.192Z,93.80
2018-11-03T05:29:14.144Z,93.80
2018-11-03T05:32:18.085Z,93.80
2018-11-03T05:35:21.933Z,93.90
2018-11-03T05:38:25.976Z,93.90
2018-11-03T05:41:29.944Z,93.80
2018-11-03T05:44:33.858Z,93.90
2018-11-03T05:47:37.802Z,94.10
2018-11-03T05:50:41.735Z,94.10
2018-11-03T05:53:45.651Z,94.00
2018-11-03T05:56:49.610Z,94.00
2018-11-03T05:59:53.526Z,93.90
2018-11-03T06:02:59.338Z,93.90
2018-11-03T06:06:03.218Z,93.80
2018-11-03T06:09:08.638Z,93.70
2018-11-03T06:12:12.520Z,93.70
2018-11-03T06:15:16.417Z,93.70
2018-11-03T06:18:20.290Z,93.70
2018-11-03T06:21:24.212Z,93.60
2018-11-03T06:24:28.225Z,93.50
2018-11-03T06:27:32.192Z,93.50
2018-11-03T06:30:36.519Z,93.30
2018-11-03T06:33:40.425Z,93.30
2018-11-03T06:36:44.337Z,93.30
2018-11-03T06:39:48.252Z,93.40
2018-11-03T06:42:52.165Z,93.30
2018-11-03T06:45:56.069Z,93.30
2018-11-03T06:49:05.095Z,93.30
2018-11-03T06:52:09.003Z,93.20
2018-11-03T06:55:12.935Z,93.10
2018-11-03T06:58:18.029Z,93.20
2018-11-03T07:01:21.899Z,93.10
2018-11-03T07:04:25.806Z,93.20
2018-11-03T07:07:29.695Z,93.10
2018-11-03T07:10:33.615Z,93.20
2018-11-03T07:13:37.504Z,93.20
2018-11-03T07:16:41.534Z,93.10
2018-11-03T07:19:45.469Z,93.10
2018-11-03T07:22:49.490Z,93.30
2018-11-03T07:25:53.463Z,93.20
2018-11-03T07:28:57.445Z,93.20
2018-11-03T07:32:01.440Z,93.00
2018-11-03T07:35:05.493Z,93.00
2018-11-03T07:38:09.427Z,93.10
2018-11-03T07:41:13.387Z,93.10
2018-11-03T07:44:17.288Z,93.10
2018-11-03T07:47:22.186Z,93.10
2018-11-03T07:50:26.089Z,93.20
2018-11-03T07:53:30.142Z,93.10
2018-11-03T07:56:34.074Z,93.00
2018-11-03T07:59:37.976Z,93.30
2018-11-03T08:02:41.894Z,93.00
2018-11-03T08:05:45.787Z,93.30
2018-11-03T08:08:49.852Z,93.30
2018-11-03T08:11:53.777Z,93.30
2018-11-03T08:14:57.859Z,93.30
2018-11-03T08:18:01.762Z,93.30
2018-11-03T08:21:05.710Z,93.20
2018-11-03T08:24:09.635Z,93.40
2018-11-03T08:27:13.543Z,93.60
2018-11-03T08:30:17.423Z,93.50
2018-11-03T08:33:21.460Z,93.60
2018-11-03T08:36:25.514Z,93.80
2018-11-03T08:39:29.544Z,93.90
2018-11-03T08:42:33.605Z,93.70
2018-11-03T08:45:37.560Z,93.50
2018-11-03T08:48:41.563Z,93.20
2018-11-03T08:51:45.448Z,93.30
2018-11-03T08:54:49.458Z,93.50
2018-11-03T08:57:53.357Z,93.50
2018-11-03T09:00:57.633Z,93.50
2018-11-03T09:04:01.550Z,93.30
2018-11-03T09:07:05.682Z,93.10
2018-11-03T09:10:11.883Z,93.10
2018-11-03T09:13:15.842Z,92.90
2018-11-03T09:16:19.762Z,92.70
2018-11-03T09:19:23.747Z,92.80
2018-11-03T09:22:27.774Z,92.50
2018-11-03T09:25:31.726Z,92.60
2018-11-03T09:28:35.602Z,92.70
2018-11-03T09:31:39.618Z,92.60
2018-11-03T09:34:43.628Z,92.40
2018-11-03T09:37:47.620Z,92.10
2018-11-03T09:40:51.518Z,92.20
2018-11-03T09:43:55.413Z,92.10
2018-11-03T09:46:59.348Z,91.70
2018-11-03T09:50:03.433Z,91.60
2018-11-03T09:53:07.372Z,91.30
2018-11-03T09:56:11.241Z,91.30
2018-11-03T09:59:15.176Z,91.40
2018-11-03T10:02:19.135Z,91.60
2018-11-03T10:05:23.225Z,91.40
2018-11-03T10:08:27.113Z,91.30
2018-11-03T10:11:31.036Z,91.30
2018-11-03T10:14:34.959Z,91.30
2018-11-03T10:17:38.870Z,91.30
2018-11-03T10:20:42.784Z,90.70
2018-11-03T10:23:46.670Z,90.60
2018-11-03T10:26:50.684Z,90.50
2018-11-03T10:29:55.197Z,90.60
2018-11-03T10:32:59.379Z,90.70
2018-11-03T10:36:03.782Z,90.50
2018-11-03T10:39:10.057Z,90.30
2018-11-03T10:42:14.461Z,90.20
2018-11-03T10:45:18.878Z,90.00
2018-11-03T10:48:23.140Z,90.00
2018-11-03T10:51:27.064Z,90.00
2018-11-03T10:54:32.719Z,90.00
2018-11-03T10:57:37.182Z,89.60
2018-11-03T11:00:46.702Z,89.40
2018-11-03T11:03:55.810Z,89.50
2018-11-03T11:07:05.201Z,89.50
2018-11-03T11:10:14.070Z,89.10
2018-11-03T11:13:19.704Z,88.80
2018-11-03T11:16:23.854Z,88.80
2018-11-03T11:19:27.649Z,88.20
2018-11-03T11:22:31.855Z,87.90
2018-11-03T11:25:36.267Z,87.70
2018-11-03T11:28:40.498Z,86.50
2018-11-03T11:31:44.835Z,86.10
2018-11-03T11:34:49.149Z,85.50
2018-11-03T11:37:53.638Z,85.10
2018-11-03T11:40:57.775Z,85.40
2018-11-03T11:44:02.144Z,85.60
2018-11-03T11:47:06.366Z,85.30
2018-11-03T11:50:10.720Z,85.00
2018-11-03T11:53:15.078Z,84.10
2018-11-03T11:56:19.565Z,84.10
2018-11-03T11:59:23.859Z,83.80
2018-11-03T12:02:28.243Z,83.40
2018-11-03T12:05:32.500Z,82.70
2018-11-03T12:08:36.854Z,82.80
2018-11-03T12:11:41.192Z,82.80
2018-11-03T12:14:45.772Z,82.20
2018-11-03T12:17:50.227Z,82.10
2018-11-03T12:20:54.546Z,80.50
2018-11-03T12:23:58.846Z,81.10
2018-11-03T12:27:03.133Z,81.30
2018-11-03T12:30:09.101Z,81.20
2018-11-03T12:33:14.265Z,81.50
2018-11-03T12:36:18.580Z,80.80
2018-11-03T12:39:22.933Z,81.20
2018-11-03T12:42:27.588Z,82.00
2018-11-03T12:45:31.804Z,82.50
2018-11-03T12:48:35.971Z,82.90
2018-11-03T12:51:40.297Z,83.70
2018-11-03T12:54:44.755Z,83.90
2018-11-03T12:57:49.283Z,84.00
2018-11-03T13:00:53.598Z,83.90
2018-11-03T13:03:57.892Z,83.90
2018-11-03T13:07:02.292Z,83.90
2018-11-03T13:10:07.635Z,83.90
2018-11-03T13:13:12.124Z,84.00
2018-11-03T13:16:16.419Z,84.00
2018-11-03T13:19:21.636Z,84.10
2018-11-03T13:22:26.112Z,84.00
2018-11-03T13:25:30.718Z,84.40
2018-11-03T13:28:36.729Z,83.50
2018-11-03T13:31:41.185Z,84.00
2018-11-03T13:34:45.681Z,84.00
2018-11-03T13:37:49.987Z,84.60
2018-11-03T13:40:54.521Z,85.30
2018-11-03T13:43:58.785Z,85.40
2018-11-03T13:47:03.153Z,85.80
2018-11-03T13:50:15.140Z,85.40
2018-11-03T13:53:19.557Z,85.50
2018-11-03T13:56:23.739Z,85.20
2018-11-03T13:59:28.070Z,85.50
2018-11-03T14:02:32.407Z,85.70
2018-11-03T14:05:36.314Z,86.10
2018-11-03T14:08:40.178Z,86.50
2018-11-03T14:11:44.164Z,86.70
2018-11-03T14:14:48.051Z,86.50
2018-11-03T14:17:51.985Z,86.50
2018-11-03T14:20:55.887Z,87.00
2018-11-03T14:24:00.048Z,87.00
2018-11-03T14:27:04.014Z,87.30
2018-11-03T14:30:09.682Z,88.20
2018-11-03T14:33:13.646Z,88.80
2018-11-03T14:36:17.633Z,88.50
2018-11-03T14:39:21.584Z,88.60
2018-11-03T14:42:25.511Z,88.50
2018-11-03T14:45:29.473Z,88.80
2018-11-03T14:48:33.434Z,88.90
2018-11-03T14:51:37.437Z,89.60
2018-11-03T14:54:41.900Z,90.00
2018-11-03T14:57:46.231Z,90.20
2018-11-03T15:00:50.563Z,90.20
2018-11-03T15:03:55.495Z,90.10
2018-11-03T15:06:59.802Z,90.10
2018-11-03T15:10:03.956Z,90.00
2018-11-03T15:13:08.245Z,89.80
2018-11-03T15:16:12.584Z,89.60
2018-11-03T15:19:16.869Z,89.20
2018-11-03T15:22:21.189Z,89.40
2018-11-03T15:25:25.591Z,89.50
2018-11-03T15:28:29.898Z,88.80
2018-11-03T15:31:34.158Z,88.70
2018-11-03T15:34:38.316Z,89.40
2018-11-03T15:37:42.520Z,89.70
2018-11-03T15:40:46.878Z,89.70
2018-11-03T15:43:51.186Z,89.60
2018-11-03T15:46:55.435Z,89.10
2018-11-03T15:49:59.788Z,89.10
2018-11-03T15:53:04.057Z,89.30
2018-11-03T15:56:08.405Z,89.70
2018-11-03T15:59:12.538Z,89.80
2018-11-03T16:02:16.949Z,89.70
2018-11-03T16:05:21.087Z,89.80
2018-11-03T16:08:25.368Z,89.80
2018-11-03T16:11:29.837Z,89.90
2018-11-03T16:14:34.225Z,89.80
2018-11-03T16:17:39.028Z,89.70
2018-11-03T16:20:43.172Z,89.70
2018-11-03T16:23:47.560Z,89.70
2018-11-03T16:26:51.955Z,89.50
2018-11-03T16:29:56.322Z,89.30
2018-11-03T16:33:00.513Z,89.50
2018-11-03T16:36:05.012Z,89.50
2018-11-03T16:39:10.478Z,89.70
2018-11-03T16:42:14.868Z,89.90
2018-11-03T16:45:18.996Z,90.10
2018-11-03T16:48:23.310Z,90.20
2018-11-03T16:51:27.468Z,90.20
2018-11-03T16:54:32.028Z,90.30
2018-11-03T16:57:36.954Z,90.30
2018-11-03T17:00:41.450Z,90.30
2018-11-03T17:03:45.750Z,90.40
2018-11-03T17:06:49.956Z,90.50
2018-11-03T17:09:54.549Z,90.60
2018-11-03T17:12:58.936Z,90.70
2018-11-03T17:16:03.219Z,90.80
2018-11-03T17:19:07.286Z,90.90
2018-11-03T17:22:11.526Z,90.80
2018-11-03T17:25:15.982Z,90.80
2018-11-03T17:28:20.165Z,91.20
2018-11-03T17:31:24.488Z,91.00
2018-11-03T17:34:29.155Z,91.00
2018-11-03T17:37:33.526Z,91.10
2018-11-03T17:40:37.982Z,91.10
2018-11-03T17:43:42.341Z,91.10
2018-11-03T17:46:46.418Z,91.30
2018-11-03T17:49:50.753Z,91.40
2018-11-03T17:52:55.283Z,91.40
2018-11-03T17:55:59.295Z,91.40
2018-11-03T17:59:03.588Z,91.40
2018-11-03T18:02:08.851Z,91.50
2018-11-03T18:05:13.228Z,91.50
2018-11-03T18:08:17.436Z,91.50
2018-11-03T18:11:22.123Z,91.50
2018-11-03T18:14:26.202Z,91.40
2018-11-03T18:17:30.789Z,91.40
2018-11-03T18:20:35.338Z,91.50
2018-11-03T18:23:40.289Z,91.60
2018-11-03T18:26:44.618Z,91.60
2018-11-03T18:29:49.185Z,91.70
2018-11-03T18:32:53.470Z,91.70
2018-11-03T18:35:57.847Z,92.00
2018-11-03T18:39:02.171Z,91.90
2018-11-03T18:42:06.481Z,92.10
2018-11-03T18:45:10.736Z,92.20
2018-11-03T18:48:15.151Z,92.20
2018-11-03T18:51:19.700Z,92.10
2018-11-03T18:54:23.850Z,92.00
2018-11-03T18:57:28.170Z,91.80
2018-11-03T19:00:32.618Z,91.70
2018-11-03T19:03:36.735Z,91.70
2018-11-03T19:06:41.043Z,91.70
2018-11-03T19:09:45.273Z,91.60
2018-11-03T19:12:49.732Z,91.50
2018-11-03T19:15:53.729Z,91.50
2018-11-03T19:18:58.169Z,91.60
2018-11-03T19:22:02.418Z,91.70
2018-11-03T19:25:08.669Z,91.70
2018-11-03T19:28:12.767Z,91.80
2018-11-03T19:31:16.983Z,91.80
2018-11-03T19:34:21.299Z,91.90
2018-11-03T19:37:25.531Z,91.90
2018-11-03T19:40:29.715Z,91.70
2018-11-03T19:43:33.962Z,92.30
2018-11-03T19:46:38.291Z,92.10
2018-11-03T19:49:42.477Z,92.10
2018-11-03T19:52:46.772Z,92.10
2018-11-03T19:55:51.073Z,92.00
2018-11-03T19:58:55.691Z,92.00
2018-11-03T20:01:59.934Z,92.30
2018-11-03T20:05:04.335Z,91.80
2018-11-03T20:08:08.725Z,91.70
2018-11-03T20:11:13.030Z,91.60
2018-11-03T20:14:17.529Z,91.50
2018-11-03T20:17:21.813Z,91.40
2018-11-03T20:20:26.130Z,91.40
2018-11-03T20:23:30.527Z,91.30
2018-11-03T20:26:35.013Z,91.20
2018-11-03T20:29:39.294Z,91.10
2018-11-03T20:32:44.052Z,91.10
2018-11-03T20:35:48.243Z,91.00
2018-11-03T20:38:52.698Z,90.90
2018-11-03T20:41:57.145Z,91.00
2018-11-03T20:45:01.357Z,90.90
2018-11-03T20:48:06.309Z,90.90
2018-11-03T20:51:11.672Z,90.80
2018-11-03T20:54:16.021Z,90.90
2018-11-03T20:57:20.386Z,90.90
2018-11-03T21:00:24.645Z,90.90
2018-11-03T21:03:28.965Z,90.60
2018-11-03T21:06:33.297Z,90.70
2018-11-03T21:09:38.427Z,90.60
2018-11-03T21:12:42.414Z,90.80
2018-11-03T21:15:47.016Z,90.90
2018-11-03T21:18:51.496Z,91.30
2018-11-03T21:21:55.985Z,91.10
2018-11-03T21:25:00.418Z,90.90
2018-11-03T21:28:04.782Z,90.80
2018-11-03T21:31:09.722Z,90.90
2018-11-03T21:34:14.279Z,90.80
2018-11-03T21:37:18.715Z,90.60
2018-11-03T21:40:23.332Z,90.80
2018-11-03T21:43:27.650Z,90.90
2018-11-03T21:46:32.153Z,90.80
2018-11-03T21:49:36.393Z,90.80
2018-11-03T21:52:40.714Z,90.80
2018-11-03T21:55:45.155Z,90.80
2018-11-03T21:58:49.692Z,90.90
2018-11-03T22:01:54.099Z,91.10
2018-11-03T22:04:58.428Z,91.10
2018-11-03T22:08:02.774Z,91.20
2018-11-03T22:11:07.068Z,91.30
2018-11-03T22:14:11.395Z,91.50
2018-11-03T22:17:15.703Z,91.60
2018-11-03T22:20:20.070Z,91.60
2018-11-03T22:23:23.923Z,91.60
2018-11-03T22:26:28.140Z,91.60
2018-11-03T22:29:32.625Z,91.50
2018-11-03T22:32:36.778Z,91.40
2018-11-03T22:35:41.265Z,91.30
2018-11-03T22:38:45.138Z,91.40
2018-11-03T22:41:49.026Z,91.30
2018-11-03T22:44:53.577Z,91.30
2018-11-03T22:47:57.670Z,91.30
2018-11-03T22:51:01.797Z,91.20
2018-11-03T22:54:06.175Z,91.40
2018-11-03T22:57:10.409Z,91.40
2018-11-03T23:00:15.019Z,91.10
2018-11-03T23:03:18.947Z,91.10
2018-11-03T23:06:23.345Z,91.20
2018-11-03T23:09:27.832Z,91.20
2018-11-03T23:12:32.358Z,91.20
2018-11-03T23:15:36.744Z,91.10
2018-11-03T23:18:41.038Z,91.20
2018-11-03T23:21:45.526Z,91.10
2018-11-03T23:24:49.875Z,91.10
2018-11-03T23:27:54.328Z,91.10
2018-11-03T23:30:58.762Z,91.20
2018-11-03T23:34:03.182Z,91.10
2018-11-03T23:37:07.460Z,91.60
2018-11-03T23:40:11.962Z,91.20
2018-11-03T23:43:16.251Z,91.30
2018-11-03T23:46:20.594Z,91.30
2018-11-03T23:49:25.059Z,91.30
2018-11-03T23:52:33.727Z,91.40
2018-11-03T23:55:38.137Z,91.40
2018-11-03T23:58:42.395Z,91.30
